createdAt,value
2018-05-02T00:00:57.308Z,97.00
2018-05-02T00:03:30.881Z,99.70
2018-05-02T00:05:59.346Z,96.70
2018-05-02T00:08:27.861Z,97.50
2018-05-02T00:10:55.571Z,99.90
2018-05-02T00:13:30.138Z,97.10
2018-05-02T00:15:58.981Z,97.00
2018-05-02T00:18:32.033Z,97.50
2018-05-02T00:21:00.212Z,99.90
2018-05-02T00:23:38.365Z,99.90
2018-05-02T00:26:06.456Z,96.80
2018-05-02T00:28:39.976Z,99.90
2018-05-02T00:31:08.525Z,96.90
2018-05-02T00:36:30.332Z,98.30
2018-05-02T00:38:58.489Z,97.20
2018-05-02T00:41:26.526Z,97.20
2018-05-02T00:43:55.325Z,97.20
2018-05-02T00:46:29.919Z,99.90
2018-05-02T00:49:23.492Z,97.50
2018-05-02T00:51:51.885Z,97.30
2018-05-02T00:56:49.624Z,99.90
2018-05-02T00:59:20.298Z,97.20
2018-05-02T01:01:48.738Z,97.30
2018-05-02T01:04:20.690Z,97.20
2018-05-02T01:06:48.323Z,99.90
2018-05-02T01:09:17.471Z,97.60
2018-05-02T01:11:45.115Z,99.90
2018-05-02T01:14:13.528Z,97.90
2018-05-02T01:16:41.949Z,98.00
2018-05-02T01:19:16.487Z,98.10
2018-05-02T01:21:44.109Z,99.90
2018-05-02T01:24:12.604Z,97.70
2018-05-02T01:26:40.303Z,99.90
2018-05-02T01:29:08.420Z,99.90
2018-05-02T01:31:37.676Z,97.80
2018-05-02T01:36:34.836Z,98.70
2018-05-02T01:39:20.168Z,97.70
2018-05-02T01:41:47.820Z,99.90
2018-05-02T01:44:15.522Z,99.90
2018-05-02T01:46:43.248Z,99.90
2018-05-02T01:49:23.950Z,99.90
2018-05-02T01:51:52.480Z,98.00
2018-05-02T01:54:36.312Z,98.20
2018-05-02T01:57:04.808Z,97.70
2018-05-02T01:59:40.000Z,99.90
2018-05-02T02:02:08.426Z,97.90
2018-05-02T02:04:44.328Z,98.00
2018-05-02T02:07:12.747Z,98.00
2018-05-02T02:09:46.885Z,98.10
2018-05-02T02:12:15.349Z,97.80
2018-05-02T02:17:51.512Z,97.60
2018-05-02T02:20:19.166Z,99.90
2018-05-02T02:23:07.187Z,97.70
2018-05-02T02:25:35.236Z,97.60
2018-05-02T02:28:09.512Z,97.80
2018-05-02T02:30:37.696Z,98.90
2018-05-02T02:33:08.199Z,97.60
2018-05-02T02:35:35.876Z,99.90
2018-05-02T02:38:12.364Z,98.10
2018-05-02T02:40:40.067Z,99.90
2018-05-02T02:43:08.543Z,97.90
2018-05-02T02:45:36.253Z,99.90
2018-05-02T02:48:17.803Z,98.20
2018-05-02T02:50:45.509Z,99.90
2018-05-02T02:53:13.652Z,97.60
2018-05-02T02:55:42.137Z,97.60
2018-05-02T02:58:09.880Z,99.90
2018-05-02T03:00:37.943Z,98.00
2018-05-02T03:03:08.120Z,97.90
2018-05-02T03:05:35.806Z,99.90
2018-05-02T03:08:09.573Z,99.90
2018-05-02T03:10:38.020Z,98.60
2018-05-02T03:13:05.716Z,99.90
2018-05-02T03:15:34.168Z,98.90
2018-05-02T03:18:14.941Z,99.90
2018-05-02T03:20:42.628Z,99.90
2018-05-02T03:23:16.264Z,98.60
2018-05-02T03:25:44.732Z,98.30
2018-05-02T03:28:13.285Z,98.60
2018-05-02T03:30:41.706Z,99.00
2018-05-02T03:33:09.438Z,99.90
2018-05-02T03:35:38.261Z,98.20
2018-05-02T03:38:06.817Z,98.20
2018-05-02T03:40:34.925Z,99.90
2018-05-02T03:43:03.930Z,98.30
2018-05-02T03:45:31.623Z,99.90
2018-05-02T03:47:59.346Z,99.90
2018-05-02T03:50:27.052Z,99.90
2018-05-02T03:52:55.903Z,99.90
2018-05-02T03:55:24.323Z,98.60
2018-05-02T03:57:57.988Z,98.60
2018-05-02T04:00:41.839Z,98.40
2018-05-02T04:03:28.031Z,99.90
2018-05-02T04:06:13.723Z,99.10
2018-05-02T04:08:41.525Z,99.90
2018-05-02T04:11:10.174Z,99.90
2018-05-02T04:13:37.882Z,99.90
2018-05-02T04:16:13.864Z,98.00
2018-05-02T04:18:42.687Z,97.90
2018-05-02T04:21:11.184Z,99.20
2018-05-02T04:23:39.967Z,98.00
2018-05-02T04:26:11.883Z,98.20
2018-05-02T04:28:40.293Z,98.40
2018-05-02T04:31:18.235Z,99.90
2018-05-02T04:33:46.659Z,98.10
2018-05-02T04:36:16.746Z,98.00
2018-05-02T04:38:44.832Z,99.80
2018-05-02T04:41:13.318Z,98.10
2018-05-02T04:43:41.381Z,98.40
2018-05-02T04:46:11.431Z,98.20
2018-05-02T04:48:39.915Z,98.00
2018-05-02T04:51:10.295Z,98.10
2018-05-02T04:53:38.021Z,99.90
2018-05-02T04:56:21.124Z,98.00
2018-05-02T04:58:48.786Z,99.90
2018-05-02T05:01:17.260Z,98.00
2018-05-02T05:03:44.950Z,99.90
2018-05-02T05:06:13.136Z,99.90
2018-05-02T05:08:40.780Z,99.90
2018-05-02T05:11:08.651Z,99.90
2018-05-02T05:13:36.287Z,99.90
2018-05-02T05:16:04.035Z,99.90
2018-05-02T05:18:31.726Z,99.90
2018-05-02T05:21:02.707Z,99.90
2018-05-02T05:23:31.208Z,97.30
2018-05-02T05:25:58.994Z,99.90
2018-05-02T05:28:26.646Z,99.90
2018-05-02T05:30:54.436Z,99.90
2018-05-02T05:33:22.143Z,99.90
2018-05-02T05:35:50.986Z,99.90
2018-05-02T05:38:18.704Z,99.90
2018-05-02T05:40:48.217Z,97.20
2018-05-02T05:43:15.916Z,99.90
2018-05-02T05:45:47.052Z,99.90
2018-05-02T05:48:14.831Z,99.90
2018-05-02T05:50:50.198Z,99.90
2018-05-02T05:53:18.665Z,97.80
2018-05-02T05:55:54.537Z,97.90
2018-05-02T05:58:22.963Z,97.30
2018-05-02T06:00:57.120Z,99.90
2018-05-02T06:03:25.564Z,96.10
2018-05-02T06:05:53.351Z,99.90
2018-05-02T06:08:21.426Z,95.50
2018-05-02T06:10:49.120Z,99.90
2018-05-02T06:13:16.777Z,99.90
2018-05-02T06:15:52.199Z,99.90
2018-05-02T06:18:19.872Z,97.40
2018-05-02T06:20:48.423Z,94.10
2018-05-02T06:23:17.383Z,93.30
2018-05-02T06:25:52.152Z,92.20
2018-05-02T06:28:20.643Z,92.00
2018-05-02T06:30:51.113Z,91.00
2018-05-02T06:33:19.546Z,90.50
2018-05-02T06:35:47.693Z,88.90
2018-05-02T06:38:16.151Z,88.80
2018-05-02T06:40:44.407Z,89.40
2018-05-02T06:43:12.054Z,93.30
2018-05-02T06:45:40.761Z,85.40
2018-05-02T06:48:09.235Z,84.50
2018-05-02T06:50:37.032Z,92.70
2018-05-02T06:53:05.122Z,84.30
2018-05-02T06:55:32.867Z,92.50
2018-05-02T06:58:00.572Z,92.20
2018-05-02T07:00:29.110Z,83.00
2018-05-02T07:02:57.197Z,91.20
2018-05-02T07:05:26.004Z,91.50
2018-05-02T07:07:55.158Z,81.80
2018-05-02T07:10:28.077Z,79.20
2018-05-02T07:12:55.747Z,85.50
2018-05-02T07:15:23.518Z,87.10
2018-05-02T07:17:51.171Z,87.70
2018-05-02T07:20:18.911Z,86.80
2018-05-02T07:22:46.606Z,87.40
2018-05-02T07:25:14.754Z,75.60
2018-05-02T07:27:42.859Z,76.00
2018-05-02T07:30:11.366Z,74.80
2018-05-02T07:32:39.198Z,84.00
2018-05-02T07:35:13.005Z,81.70
2018-05-02T07:37:41.101Z,70.10
2018-05-02T07:40:15.469Z,80.00
2018-05-02T07:42:43.123Z,79.00
2018-05-02T07:45:22.111Z,70.80
2018-05-02T07:47:49.771Z,73.40
2018-05-02T07:50:22.150Z,70.00
2018-05-02T07:52:50.195Z,68.90
2018-05-02T07:55:19.137Z,68.40
2018-05-02T07:57:46.802Z,75.40
2018-05-02T08:00:17.789Z,66.90
2018-05-02T08:02:46.254Z,67.10
2018-05-02T08:05:20.810Z,63.80
2018-05-02T08:07:48.480Z,70.80
2018-05-02T08:10:19.526Z,73.40
2018-05-02T08:12:47.249Z,69.80
2018-05-02T08:15:21.522Z,59.90
2018-05-02T08:17:49.189Z,67.10
2018-05-02T08:20:16.930Z,64.90
2018-05-02T08:22:44.997Z,56.20
2018-05-02T08:25:12.825Z,68.20
2018-05-02T08:27:40.497Z,66.60
2018-05-02T08:30:08.613Z,60.10
2018-05-02T08:32:36.683Z,61.70
2018-05-02T08:35:05.605Z,57.10
2018-05-02T08:37:33.271Z,63.40
2018-05-02T08:40:05.062Z,57.60
2018-05-02T08:42:32.746Z,63.00
2018-05-02T08:45:06.458Z,63.50
2018-05-02T08:47:34.131Z,64.10
2018-05-02T08:50:14.987Z,62.20
2018-05-02T08:52:43.398Z,58.10
2018-05-02T08:55:30.603Z,60.00
2018-05-02T08:57:58.259Z,60.50
2018-05-02T09:00:34.011Z,65.20
2018-05-02T09:03:02.047Z,58.20
2018-05-02T09:05:30.156Z,58.50
2018-05-02T09:07:58.261Z,58.10
2018-05-02T09:10:33.222Z,67.20
2018-05-02T09:13:01.692Z,57.60
2018-05-02T09:15:30.871Z,58.30
2018-05-02T09:17:58.531Z,66.50
2018-05-02T09:20:27.299Z,67.10
2018-05-02T09:22:55.017Z,62.70
2018-05-02T09:25:29.380Z,63.50
2018-05-02T09:27:57.066Z,65.00
2018-05-02T09:30:26.550Z,56.60
2018-05-02T09:32:55.739Z,55.90
2018-05-02T09:35:23.498Z,62.20
2018-05-02T09:37:51.286Z,59.10
2018-05-02T09:40:19.139Z,58.40
2018-05-02T09:42:46.769Z,56.40
2018-05-02T09:45:14.564Z,59.40
2018-05-02T09:47:42.657Z,53.20
2018-05-02T09:50:10.406Z,60.60
2018-05-02T09:52:38.066Z,60.00
2018-05-02T09:55:05.961Z,59.50
2018-05-02T09:57:34.375Z,55.10
2018-05-02T10:00:05.773Z,58.50
2018-05-02T10:02:34.730Z,53.20
2018-05-02T10:05:03.336Z,59.90
2018-05-02T10:07:30.985Z,58.80
2018-05-02T10:10:05.199Z,57.30
2018-05-02T10:12:32.917Z,59.10
2018-05-02T10:15:01.012Z,53.00
2018-05-02T10:17:28.711Z,57.20
2018-05-02T10:19:58.225Z,50.90
2018-05-02T10:22:26.337Z,51.20
2018-05-02T10:24:54.480Z,49.60
2018-05-02T10:27:22.915Z,48.80
2018-05-02T10:29:50.770Z,55.40
2018-05-02T10:32:18.830Z,51.90
2018-05-02T10:34:47.941Z,49.60
2018-05-02T10:37:16.742Z,50.30
2018-05-02T10:39:44.558Z,53.20
2018-05-02T10:42:13.003Z,47.40
2018-05-02T10:45:04.823Z,53.20
2018-05-02T10:47:32.623Z,50.80
2018-05-02T10:50:04.320Z,48.20
2018-05-02T10:52:32.013Z,54.60
2018-05-02T10:55:01.287Z,47.20
2018-05-02T10:57:29.089Z,53.80
2018-05-02T11:00:05.499Z,46.60
2018-05-02T11:02:33.285Z,54.40
2018-05-02T11:05:05.059Z,53.70
2018-05-02T11:07:32.739Z,54.30
2018-05-02T11:10:00.502Z,52.00
2018-05-02T11:12:28.168Z,49.70
2018-05-02T11:14:56.244Z,43.20
2018-05-02T11:17:24.683Z,44.60
2018-05-02T11:19:52.494Z,46.90
2018-05-02T11:22:20.940Z,46.70
2018-05-02T11:24:56.494Z,44.40
2018-05-02T11:27:24.146Z,50.20
2018-05-02T11:29:52.605Z,45.80
2018-05-02T11:32:20.287Z,53.10
2018-05-02T11:34:49.126Z,48.70
2018-05-02T11:37:17.116Z,44.30
2018-05-02T11:39:52.895Z,48.90
2018-05-02T11:42:20.541Z,49.90
2018-05-02T11:44:50.992Z,44.50
2018-05-02T11:47:18.692Z,49.50
2018-05-02T11:49:46.421Z,49.80
2018-05-02T11:52:14.991Z,44.20
2018-05-02T11:54:42.766Z,49.20
2018-05-02T11:57:10.494Z,48.60
2018-05-02T11:59:41.969Z,51.00
2018-05-02T12:02:09.654Z,48.70
2018-05-02T12:04:41.578Z,49.10
2018-05-02T12:07:09.261Z,47.70
2018-05-02T12:09:44.695Z,42.00
2018-05-02T12:12:12.366Z,45.00
2018-05-02T12:14:54.331Z,44.20
2018-05-02T12:17:21.994Z,48.30
2018-05-02T12:19:52.127Z,41.80
2018-05-02T12:22:20.963Z,39.60
2018-05-02T12:25:02.967Z,40.70
2018-05-02T12:27:31.632Z,40.20
2018-05-02T12:29:59.394Z,45.70
2018-05-02T12:32:27.511Z,46.80
2018-05-02T12:35:04.162Z,42.50
2018-05-02T12:37:32.637Z,45.00
2018-05-02T12:40:01.126Z,42.60
2018-05-02T12:42:29.584Z,41.10
2018-05-02T12:44:59.042Z,42.50
2018-05-02T12:47:26.833Z,47.20
2018-05-02T12:49:55.301Z,43.30
2018-05-02T12:52:22.960Z,48.20
2018-05-02T12:54:50.678Z,47.60
2018-05-02T12:57:19.135Z,41.90
2018-05-02T12:59:46.942Z,44.90
2018-05-02T13:02:14.614Z,44.80
2018-05-02T13:04:47.978Z,47.10
2018-05-02T13:07:16.405Z,42.20
2018-05-02T13:09:47.705Z,45.80
2018-05-02T13:12:16.177Z,41.60
2018-05-02T13:14:45.673Z,41.50
2018-05-02T13:17:13.382Z,45.20
2018-05-02T13:19:47.493Z,43.40
2018-05-02T13:22:15.558Z,41.90
2018-05-02T13:24:47.790Z,47.60
2018-05-02T13:27:16.297Z,43.40
2018-05-02T13:29:50.800Z,44.20
2018-05-02T13:32:18.510Z,47.50
2018-05-02T13:34:56.416Z,45.80
2018-05-02T13:37:24.097Z,47.60
2018-05-02T13:40:02.919Z,41.60
2018-05-02T13:42:30.579Z,48.70
2018-05-02T13:45:11.918Z,47.00
2018-05-02T13:47:40.347Z,43.10
2018-05-02T13:50:12.038Z,47.50
2018-05-02T13:52:40.448Z,42.60
2018-05-02T13:55:13.390Z,47.20
2018-05-02T13:57:41.958Z,42.30
2018-05-02T14:00:09.709Z,47.60
2018-05-02T14:02:37.540Z,45.30
2018-05-02T14:05:06.269Z,47.00
2018-05-02T14:07:33.908Z,46.90
2018-05-02T14:10:05.974Z,47.80
2018-05-02T14:12:34.008Z,42.40
2018-05-02T14:15:02.150Z,43.10
2018-05-02T14:17:29.844Z,47.50
2018-05-02T14:19:57.596Z,46.30
2018-05-02T14:22:26.012Z,41.60
2018-05-02T14:24:59.914Z,45.80
2018-05-02T14:27:27.556Z,46.60
2018-05-02T14:29:58.747Z,42.10
2018-05-02T14:32:26.418Z,46.20
2018-05-02T14:34:55.124Z,47.50
2018-05-02T14:37:22.813Z,46.40
2018-05-02T14:39:50.545Z,46.30
2018-05-02T14:42:18.974Z,42.70
2018-05-02T14:44:48.381Z,40.80
2018-05-02T14:47:16.056Z,45.90
2018-05-02T14:49:48.406Z,44.10
2018-05-02T14:52:16.400Z,45.30
2018-05-02T14:54:44.088Z,45.20
2018-05-02T14:57:13.295Z,40.60
2018-05-02T14:59:48.286Z,43.50
2018-05-02T15:02:15.997Z,45.20
2018-05-02T15:04:47.125Z,45.50
2018-05-02T15:07:15.201Z,41.90
2018-05-02T15:09:48.785Z,46.60
2018-05-02T15:12:16.440Z,46.70
2018-05-02T15:14:45.834Z,42.80
2018-05-02T15:17:13.927Z,43.00
2018-05-02T15:19:58.387Z,47.40
2018-05-02T15:22:26.714Z,47.90
2018-05-02T15:27:24.611Z,49.20
2018-05-02T15:30:02.426Z,50.10
2018-05-02T15:32:30.459Z,49.10
2018-05-02T15:35:00.540Z,45.60
2018-05-02T15:37:28.197Z,48.20
2018-05-02T15:40:09.377Z,49.50
2018-05-02T15:42:37.027Z,49.20
2018-05-02T15:45:09.339Z,45.00
2018-05-02T15:47:37.416Z,44.30
2018-05-02T15:50:05.685Z,44.60
2018-05-02T15:52:34.217Z,46.20
2018-05-02T15:55:03.543Z,47.20
2018-05-02T15:57:31.214Z,51.20
2018-05-02T15:59:59.070Z,50.70
2018-05-02T16:02:26.748Z,49.10
2018-05-02T16:07:24.602Z,51.30
2018-05-02T16:09:52.758Z,46.80
2018-05-02T16:12:21.254Z,48.30
2018-05-02T16:14:49.456Z,48.00
2018-05-02T16:17:17.912Z,47.80
2018-05-02T16:19:45.740Z,52.90
2018-05-02T16:22:13.513Z,52.50
2018-05-02T16:24:42.150Z,47.70
2018-05-02T16:27:10.573Z,48.40
2018-05-02T16:29:38.776Z,50.60
2018-05-02T16:32:06.466Z,55.20
2018-05-02T16:34:36.029Z,50.70
2018-05-02T16:39:34.842Z,50.30
2018-05-02T16:42:02.940Z,51.80
2018-05-02T16:44:30.840Z,56.40
2018-05-02T16:46:58.506Z,57.10
2018-05-02T16:49:27.007Z,52.80
2018-05-02T16:51:55.090Z,53.20
2018-05-02T16:54:26.373Z,54.00
2018-05-02T16:56:55.205Z,52.90
2018-05-02T16:59:27.411Z,58.60
2018-05-02T17:01:56.139Z,54.90
2018-05-02T17:04:25.333Z,59.60
2018-05-02T17:06:53.759Z,53.90
2018-05-02T17:11:51.395Z,55.00
2018-05-02T17:14:19.205Z,60.60
2018-05-02T17:16:46.960Z,60.90
2018-05-02T17:19:18.228Z,61.60
2018-05-02T17:21:47.103Z,56.20
2018-05-02T17:24:14.892Z,59.60
2018-05-02T17:26:42.555Z,62.70
2018-05-02T17:29:17.469Z,57.20
2018-05-02T17:31:46.262Z,57.90
2018-05-02T17:34:13.998Z,62.00
2018-05-02T17:36:42.084Z,58.90
2018-05-02T17:39:10.238Z,60.30
2018-05-02T17:41:38.769Z,59.20
2018-05-02T17:44:07.638Z,59.80
2018-05-02T17:46:35.375Z,67.10
2018-05-02T17:49:04.609Z,59.50
2018-05-02T17:51:32.662Z,60.20
2018-05-02T17:54:00.810Z,61.50
2018-05-02T17:56:28.862Z,61.60
2018-05-02T17:58:57.587Z,67.00
2018-05-02T18:01:25.270Z,69.30
2018-05-02T18:03:53.122Z,70.20
2018-05-02T18:06:20.785Z,70.50
2018-05-02T18:08:48.523Z,70.80
2018-05-02T18:11:17.645Z,63.90
2018-05-02T18:14:01.315Z,64.30
2018-05-02T18:16:29.765Z,65.00
2018-05-02T18:19:04.672Z,65.60
2018-05-02T18:21:32.305Z,73.80
2018-05-02T18:24:00.148Z,72.20
2018-05-02T18:26:28.190Z,67.70
2018-05-02T18:28:57.689Z,67.10
2018-05-02T18:33:58.584Z,68.90
2018-05-02T18:36:27.029Z,68.60
2018-05-02T18:38:57.572Z,68.60
2018-05-02T18:41:25.705Z,68.10
2018-05-02T18:43:56.665Z,76.90
2018-05-02T18:46:25.129Z,69.40
2018-05-02T18:48:57.307Z,69.70
2018-05-02T18:51:25.087Z,78.70
2018-05-02T18:53:56.013Z,75.20
2018-05-02T18:56:23.677Z,79.20
2018-05-02T18:58:52.523Z,74.60
2018-05-02T19:01:20.584Z,71.20
2018-05-02T19:06:21.283Z,80.90
2018-05-02T19:08:49.777Z,72.70
2018-05-02T19:11:18.239Z,73.60
2018-05-02T19:13:52.302Z,73.20
2018-05-02T19:16:20.406Z,74.80
2018-05-02T19:18:55.896Z,74.20
2018-05-02T19:21:23.610Z,81.10
2018-05-02T19:23:52.836Z,77.10
2018-05-02T19:28:55.363Z,86.90
2018-05-02T19:31:29.098Z,83.00
2018-05-02T19:33:57.203Z,82.70
2018-05-02T19:36:25.295Z,82.50
2018-05-02T19:38:53.958Z,88.70
2018-05-02T19:44:02.598Z,83.30
2018-05-02T19:46:31.449Z,84.60
2018-05-02T19:51:58.834Z,86.60
2018-05-02T19:54:26.557Z,91.10
2018-05-02T19:56:55.030Z,88.20
2018-05-02T20:01:57.952Z,89.40
2018-05-02T20:04:26.111Z,90.50
2018-05-02T20:06:59.455Z,90.00
2018-05-02T20:09:33.483Z,90.40
2018-05-02T20:12:20.790Z,90.10
2018-05-02T20:14:49.582Z,90.50
2018-05-02T20:17:17.774Z,94.20
2018-05-02T20:19:46.261Z,91.00
2018-05-02T20:22:15.329Z,90.80
2018-05-02T20:29:44.559Z,92.10
2018-05-02T20:32:13.962Z,91.20
2018-05-02T20:34:42.040Z,91.60
2018-05-02T20:37:09.718Z,96.10
2018-05-02T20:39:38.289Z,91.70
2018-05-02T20:42:06.742Z,92.00
2018-05-02T20:44:34.402Z,94.10
2018-05-02T20:47:03.691Z,92.30
2018-05-02T20:49:31.346Z,95.40
2018-05-02T20:52:09.599Z,93.30
2018-05-02T20:54:38.049Z,92.30
2018-05-02T20:57:07.494Z,92.40
2018-05-02T20:59:36.345Z,92.60
2018-05-02T21:02:05.819Z,92.50
2018-05-02T21:04:33.900Z,92.50
2018-05-02T21:07:07.575Z,92.60
2018-05-02T21:09:37.631Z,92.80
2018-05-02T21:12:12.003Z,92.30
2018-05-02T21:14:39.825Z,96.30
2018-05-02T21:17:15.146Z,92.70
2018-05-02T21:19:43.986Z,92.70
2018-05-02T21:22:15.293Z,92.90
2018-05-02T21:24:43.737Z,93.10
2018-05-02T21:27:11.397Z,97.90
2018-05-02T21:29:39.116Z,97.80
2018-05-02T21:32:15.299Z,93.10
2018-05-02T21:34:43.750Z,93.00
2018-05-02T21:37:15.970Z,97.60
2018-05-02T21:39:43.655Z,97.70
2018-05-02T21:42:14.159Z,93.20
2018-05-02T21:44:42.617Z,93.30
2018-05-02T21:47:34.870Z,98.10
2018-05-02T21:50:02.619Z,98.10
2018-05-02T21:52:32.415Z,93.40
2018-05-02T21:57:44.254Z,93.80
2018-05-02T22:02:43.763Z,93.90
2018-05-02T22:05:11.419Z,98.60
2018-05-02T22:07:40.533Z,94.00
2018-05-02T22:10:08.563Z,94.10
2018-05-02T22:12:42.297Z,97.40
2018-05-02T22:15:10.727Z,93.60
2018-05-02T22:17:41.208Z,93.30
2018-05-02T22:20:08.915Z,97.70
2018-05-02T22:22:39.517Z,93.20
2018-05-02T22:25:07.554Z,92.90
2018-05-02T22:30:11.703Z,92.70
2018-05-02T22:32:40.873Z,92.40
2018-05-02T22:35:08.588Z,97.00
2018-05-02T22:37:37.462Z,92.00
2018-05-02T22:40:05.138Z,96.10
2018-05-02T22:42:36.359Z,91.70
2018-05-02T22:45:04.154Z,96.10
2018-05-02T22:47:32.610Z,91.50
2018-05-02T22:50:00.845Z,91.60
2018-05-02T22:52:32.463Z,91.10
2018-05-02T22:55:01.295Z,90.60
2018-05-02T22:57:36.030Z,93.10
2018-05-02T23:02:37.347Z,92.80
2018-05-02T23:05:05.434Z,90.30
2018-05-02T23:07:33.644Z,90.20
2018-05-02T23:10:02.098Z,90.20
2018-05-02T23:15:04.205Z,90.60
2018-05-02T23:17:32.646Z,90.40
2018-05-02T23:20:00.301Z,95.10
2018-05-02T23:22:34.864Z,90.80
2018-05-02T23:25:02.944Z,95.60
2018-05-02T23:27:35.513Z,90.70
2018-05-02T23:30:04.413Z,90.80
2018-05-02T23:32:45.551Z,90.80
2018-05-02T23:35:13.994Z,90.90
2018-05-02T23:37:42.078Z,91.30
2018-05-02T23:40:10.560Z,91.40
2018-05-02T23:45:09.186Z,91.50
2018-05-02T23:47:40.815Z,91.70
2018-05-02T23:50:08.492Z,96.00
2018-05-02T23:52:37.642Z,91.70
2018-05-02T23:55:06.874Z,92.00
2018-05-02T23:57:38.127Z,92.00
